createdAt,value
2022-08-30T00:00:08.267Z,0.00
2022-08-30T00:01:08.247Z,0.00
2022-08-30T00:02:08.275Z,0.00
2022-08-30T00:03:08.323Z,0.00
2022-08-30T00:04:08.212Z,0.00
2022-08-30T00:05:08.192Z,0.00
2022-08-30T00:06:08.173Z,0.00
2022-08-30T00:07:08.158Z,0.00
2022-08-30T00:08:08.143Z,0.00
2022-08-30T00:09:08.126Z,0.00
2022-08-30T00:10:08.112Z,0.00
2022-08-30T00:11:08.097Z,0.00
2022-08-30T00:12:08.085Z,0.00
2022-08-30T00:13:08.067Z,0.00
2022-08-30T00:14:08.054Z,0.00
2022-08-30T00:15:08.041Z,0.00
2022-08-30T00:16:08.056Z,0.00
2022-08-30T00:17:08.011Z,0.00
2022-08-30T00:18:07.993Z,0.00
2022-08-30T00:19:08.428Z,0.00
2022-08-30T00:20:07.967Z,0.00
2022-08-30T00:21:07.946Z,0.00
2022-08-30T00:22:07.931Z,0.00
2022-08-30T00:23:07.912Z,0.00
2022-08-30T00:24:07.901Z,0.00
2022-08-30T00:25:07.888Z,0.00
2022-08-30T00:26:07.874Z,0.00
2022-08-30T00:27:07.853Z,0.00
2022-08-30T00:28:07.845Z,0.00
2022-08-30T00:29:07.823Z,0.00
2022-08-30T00:30:07.808Z,0.00
2022-08-30T00:31:07.863Z,0.00
2022-08-30T00:32:07.777Z,0.00
2022-08-30T00:33:07.766Z,0.00
2022-08-30T00:34:07.744Z,0.00
2022-08-30T00:35:07.732Z,0.00
2022-08-30T00:36:07.715Z,0.00
2022-08-30T00:37:07.701Z,0.00
2022-08-30T00:38:07.683Z,0.00
2022-08-30T00:39:07.670Z,0.00
2022-08-30T00:40:07.747Z,0.00
2022-08-30T00:41:07.640Z,0.00
2022-08-30T00:42:07.625Z,0.00
2022-08-30T00:43:07.607Z,0.00
2022-08-30T00:44:07.593Z,0.00
2022-08-30T00:45:07.579Z,0.00
2022-08-30T00:46:07.655Z,0.00
2022-08-30T00:47:07.545Z,0.00
2022-08-30T00:48:07.530Z,0.00
2022-08-30T00:49:07.520Z,0.00
2022-08-30T00:50:07.499Z,0.00
2022-08-30T00:51:07.486Z,0.00
2022-08-30T00:52:07.476Z,0.00
2022-08-30T00:53:07.454Z,0.00
2022-08-30T00:54:07.436Z,0.00
2022-08-30T00:55:07.423Z,0.00
2022-08-30T00:56:07.407Z,0.00
2022-08-30T00:57:07.392Z,0.00
2022-08-30T00:58:07.377Z,0.00
2022-08-30T00:59:07.360Z,0.00
2022-08-30T01:00:07.345Z,0.00
2022-08-30T01:01:07.388Z,0.00
2022-08-30T01:02:07.371Z,0.00
2022-08-30T01:03:07.301Z,0.00
2022-08-30T01:04:07.284Z,0.00
2022-08-30T01:05:07.274Z,0.00
2022-08-30T01:06:07.257Z,0.00
2022-08-30T01:07:07.237Z,0.00
2022-08-30T01:08:07.221Z,0.00
2022-08-30T01:09:07.202Z,0.00
2022-08-30T01:10:07.190Z,0.00
2022-08-30T01:11:07.173Z,0.00
2022-08-30T01:12:07.159Z,0.00
2022-08-30T01:13:07.146Z,0.00
2022-08-30T01:14:07.218Z,0.00
2022-08-30T01:15:07.115Z,0.00
2022-08-30T01:16:07.173Z,0.00
2022-08-30T01:17:07.079Z,0.00
2022-08-30T01:18:07.726Z,0.00
2022-08-30T01:19:07.056Z,0.00
2022-08-30T01:20:07.035Z,0.00
2022-08-30T01:21:07.022Z,0.00
2022-08-30T01:22:07.001Z,0.00
2022-08-30T01:23:06.990Z,0.00
2022-08-30T01:24:06.972Z,0.00
2022-08-30T01:25:08.077Z,0.00
2022-08-30T01:26:06.941Z,0.00
2022-08-30T01:27:06.924Z,0.00
2022-08-30T01:28:06.912Z,0.00
2022-08-30T01:29:06.896Z,0.00
2022-08-30T01:30:06.874Z,0.00
2022-08-30T01:31:06.954Z,0.00
2022-08-30T01:32:06.846Z,0.00
2022-08-30T01:33:06.832Z,0.00
2022-08-30T01:34:06.816Z,0.00
2022-08-30T01:35:06.800Z,0.00
2022-08-30T01:36:06.782Z,0.00
2022-08-30T01:37:06.770Z,0.00
2022-08-30T01:38:06.751Z,0.00
2022-08-30T01:39:06.738Z,0.00
2022-08-30T01:40:06.826Z,0.00
2022-08-30T01:41:06.705Z,0.00
2022-08-30T01:42:06.691Z,0.00
2022-08-30T01:43:06.672Z,0.00
2022-08-30T01:44:06.653Z,0.00
2022-08-30T01:45:06.643Z,0.00
2022-08-30T01:46:06.725Z,0.00
2022-08-30T01:47:06.610Z,0.00
2022-08-30T01:48:06.870Z,0.00
2022-08-30T01:49:06.579Z,0.00
2022-08-30T01:50:06.570Z,0.00
2022-08-30T01:51:06.547Z,0.00
2022-08-30T01:52:06.530Z,0.00
2022-08-30T01:53:06.517Z,0.00
2022-08-30T01:54:06.502Z,0.00
2022-08-30T01:55:06.488Z,0.00
2022-08-30T01:56:06.469Z,0.00
2022-08-30T01:57:06.455Z,0.00
2022-08-30T01:58:06.437Z,0.00
2022-08-30T01:59:06.425Z,0.00
2022-08-30T02:00:06.405Z,0.00
2022-08-30T02:01:06.447Z,0.00
2022-08-30T02:02:06.379Z,0.00
2022-08-30T02:03:06.361Z,0.00
2022-08-30T02:04:06.438Z,0.00
2022-08-30T02:05:06.328Z,0.00
2022-08-30T02:06:06.311Z,0.00
2022-08-30T02:07:06.295Z,0.00
2022-08-30T02:08:06.280Z,0.00
2022-08-30T02:09:06.267Z,0.00
2022-08-30T02:10:06.245Z,0.00
2022-08-30T02:11:06.233Z,0.00
2022-08-30T02:12:06.210Z,0.00
2022-08-30T02:13:06.194Z,0.00
2022-08-30T02:14:06.181Z,0.00
2022-08-30T02:15:06.167Z,0.00
2022-08-30T02:16:06.150Z,0.00
2022-08-30T02:17:06.199Z,0.00
2022-08-30T02:18:06.115Z,0.00
2022-08-30T02:19:06.096Z,0.00
2022-08-30T02:20:06.086Z,0.00
2022-08-30T02:21:06.063Z,0.00
2022-08-30T02:22:06.054Z,0.00
2022-08-30T02:23:06.035Z,0.00
2022-08-30T02:24:06.019Z,0.00
2022-08-30T02:25:06.000Z,0.00
2022-08-30T02:26:05.986Z,0.00
2022-08-30T02:27:05.982Z,0.00
2022-08-30T02:28:05.955Z,0.00
2022-08-30T02:29:05.944Z,0.00
2022-08-30T02:30:05.924Z,0.00
2022-08-30T02:31:05.945Z,0.00
2022-08-30T02:32:05.978Z,0.00
2022-08-30T02:33:05.874Z,0.00
2022-08-30T02:34:05.856Z,0.00
2022-08-30T02:35:05.839Z,0.00
2022-08-30T02:36:05.826Z,0.00
2022-08-30T02:37:05.813Z,0.00
2022-08-30T02:38:05.793Z,0.00
2022-08-30T02:39:05.778Z,0.00
2022-08-30T02:40:05.867Z,0.00
2022-08-30T02:41:05.753Z,0.00
2022-08-30T02:42:05.729Z,0.00
2022-08-30T02:43:05.710Z,0.00
2022-08-30T02:44:05.699Z,0.00
2022-08-30T02:45:05.682Z,0.00
2022-08-30T02:46:05.735Z,0.00
2022-08-30T02:47:05.646Z,0.00
2022-08-30T02:48:05.630Z,0.00
2022-08-30T02:49:34.453Z,0.00
2022-08-30T02:50:05.602Z,0.00
2022-08-30T02:51:05.579Z,0.00
2022-08-30T02:52:05.571Z,0.00
2022-08-30T02:53:05.554Z,0.00
2022-08-30T02:54:05.533Z,0.00
2022-08-30T02:55:05.521Z,0.00
2022-08-30T02:56:05.500Z,0.00
2022-08-30T02:57:05.490Z,0.00
2022-08-30T02:58:05.493Z,0.00
2022-08-30T02:59:05.451Z,0.00
2022-08-30T03:00:05.438Z,0.00
2022-08-30T03:01:05.496Z,0.00
2022-08-30T03:02:05.397Z,0.00
2022-08-30T03:03:05.386Z,0.00
2022-08-30T03:04:05.522Z,0.00
2022-08-30T03:05:05.355Z,0.00
2022-08-30T03:06:05.335Z,0.00
2022-08-30T03:07:05.330Z,0.00
2022-08-30T03:08:05.323Z,0.00
2022-08-30T03:09:05.288Z,0.00
2022-08-30T03:10:05.273Z,0.00
2022-08-30T03:11:05.256Z,0.00
2022-08-30T03:12:05.243Z,0.00
2022-08-30T03:13:05.223Z,0.00
2022-08-30T03:14:05.206Z,0.00
2022-08-30T03:15:05.191Z,0.00
2022-08-30T03:16:05.239Z,0.00
2022-08-30T03:17:05.163Z,0.00
2022-08-30T03:18:05.141Z,0.00
2022-08-30T03:19:05.127Z,0.00
2022-08-30T03:20:05.108Z,0.00
2022-08-30T03:21:05.096Z,0.00
2022-08-30T03:22:05.078Z,0.00
2022-08-30T03:23:05.063Z,0.00
2022-08-30T03:24:05.045Z,0.00
2022-08-30T03:25:05.025Z,0.00
2022-08-30T03:26:05.006Z,0.00
2022-08-30T03:27:04.993Z,0.00
2022-08-30T03:28:04.981Z,0.00
2022-08-30T03:29:04.967Z,0.00
2022-08-30T03:30:04.946Z,0.00
2022-08-30T03:31:04.930Z,0.00
2022-08-30T03:32:04.952Z,0.00
2022-08-30T03:33:04.901Z,0.00
2022-08-30T03:34:04.884Z,0.00
2022-08-30T03:35:04.865Z,0.00
2022-08-30T03:36:04.848Z,0.00
2022-08-30T03:37:04.837Z,0.00
2022-08-30T03:38:04.814Z,0.00
2022-08-30T03:39:04.813Z,0.00
2022-08-30T03:40:04.871Z,0.00
2022-08-30T03:41:04.813Z,0.00
2022-08-30T03:42:04.753Z,0.00
2022-08-30T03:43:04.932Z,0.00
2022-08-30T03:44:04.715Z,0.00
2022-08-30T03:45:04.698Z,0.00
2022-08-30T03:46:04.787Z,0.00
2022-08-30T03:47:04.666Z,0.00
2022-08-30T03:48:04.652Z,0.00
2022-08-30T03:49:04.634Z,0.00
2022-08-30T03:50:04.620Z,0.00
2022-08-30T03:51:06.019Z,0.00
2022-08-30T03:52:04.588Z,0.00
2022-08-30T03:53:04.564Z,0.00
2022-08-30T03:54:04.551Z,0.00
2022-08-30T03:55:04.536Z,0.00
2022-08-30T03:56:04.518Z,0.00
2022-08-30T03:57:04.502Z,0.00
2022-08-30T03:58:04.486Z,0.00
2022-08-30T03:59:04.467Z,0.00
2022-08-30T04:00:04.457Z,0.00
2022-08-30T04:01:04.509Z,0.00
2022-08-30T04:02:04.465Z,0.00
2022-08-30T04:03:04.403Z,0.00
2022-08-30T04:04:04.384Z,0.00
2022-08-30T04:05:04.368Z,4.00
2022-08-30T04:06:04.351Z,0.00
2022-08-30T04:07:04.338Z,0.00
2022-08-30T04:08:04.321Z,4.00
2022-08-30T04:09:04.304Z,0.00
2022-08-30T04:10:04.286Z,4.00
2022-08-30T04:11:05.008Z,0.00
2022-08-30T04:12:04.254Z,4.00
2022-08-30T04:13:04.237Z,4.00
2022-08-30T04:14:04.219Z,4.00
2022-08-30T04:15:04.253Z,8.00
2022-08-30T04:16:04.247Z,8.00
2022-08-30T04:17:04.172Z,8.00
2022-08-30T04:18:04.155Z,12.00
2022-08-30T04:19:04.143Z,12.00
2022-08-30T04:20:04.149Z,16.00
2022-08-30T04:21:04.112Z,20.00
2022-08-30T04:22:04.086Z,20.00
2022-08-30T04:23:04.071Z,24.00
2022-08-30T04:24:04.065Z,28.00
2022-08-30T04:25:04.044Z,36.00
2022-08-30T04:26:04.024Z,40.00
2022-08-30T04:27:04.004Z,44.00
2022-08-30T04:28:03.991Z,48.00
2022-08-30T04:29:03.973Z,52.00
2022-08-30T04:30:03.953Z,64.00
2022-08-30T04:31:03.941Z,72.00
2022-08-30T04:32:04.011Z,80.00
2022-08-30T04:33:03.909Z,88.00
2022-08-30T04:34:03.893Z,92.00
2022-08-30T04:35:03.877Z,100.00
2022-08-30T04:36:03.863Z,116.00
2022-08-30T04:37:03.841Z,124.00
2022-08-30T04:38:03.822Z,136.00
2022-08-30T04:39:03.809Z,148.00
2022-08-30T04:40:03.904Z,160.00
2022-08-30T04:41:03.782Z,172.00
2022-08-30T04:42:03.758Z,184.00
2022-08-30T04:43:03.740Z,196.00
2022-08-30T04:44:03.724Z,212.00
2022-08-30T04:45:03.707Z,228.00
2022-08-30T04:46:03.753Z,240.00
2022-08-30T04:47:03.672Z,260.00
2022-08-30T04:48:03.656Z,276.00
2022-08-30T04:49:03.639Z,292.00
2022-08-30T04:50:03.621Z,312.00
2022-08-30T04:51:03.609Z,332.00
2022-08-30T04:52:03.598Z,348.00
2022-08-30T04:53:03.576Z,372.00
2022-08-30T04:54:03.561Z,392.00
2022-08-30T04:55:03.542Z,416.00
2022-08-30T04:56:03.522Z,436.00
2022-08-30T04:57:03.507Z,460.00
2022-08-30T04:58:03.493Z,488.00
2022-08-30T04:59:03.475Z,512.00
2022-08-30T05:00:03.463Z,536.00
2022-08-30T05:01:03.515Z,560.00
2022-08-30T05:02:03.475Z,588.00
2022-08-30T05:03:03.406Z,612.00
2022-08-30T05:04:03.388Z,640.00
2022-08-30T05:05:03.371Z,668.00
2022-08-30T05:06:03.356Z,696.00
2022-08-30T05:07:03.341Z,720.00
2022-08-30T05:08:03.321Z,752.00
2022-08-30T05:09:03.303Z,784.00
2022-08-30T05:10:04.977Z,812.00
2022-08-30T05:11:03.273Z,840.00
2022-08-30T05:12:03.255Z,872.00
2022-08-30T05:13:03.238Z,900.00
2022-08-30T05:14:03.222Z,936.00
2022-08-30T05:15:03.206Z,964.00
2022-08-30T05:16:03.266Z,996.00
2022-08-30T05:17:03.171Z,1032.00
2022-08-30T05:18:03.154Z,1064.00
2022-08-30T05:19:03.137Z,1100.00
2022-08-30T05:20:03.121Z,1140.00
2022-08-30T05:21:03.108Z,1176.00
2022-08-30T05:22:03.089Z,1208.00
2022-08-30T05:23:03.080Z,1244.00
2022-08-30T05:24:03.067Z,1280.00
2022-08-30T05:25:03.037Z,1312.00
2022-08-30T05:26:03.032Z,1340.00
2022-08-30T05:27:03.004Z,1368.00
2022-08-30T05:28:02.989Z,1396.00
2022-08-30T05:29:02.969Z,1428.00
2022-08-30T05:30:02.952Z,1452.00
2022-08-30T05:31:02.983Z,1480.00
2022-08-30T05:32:02.923Z,1508.00
2022-08-30T05:33:02.901Z,1532.00
2022-08-30T05:34:02.889Z,1560.00
2022-08-30T05:35:02.870Z,1580.00
2022-08-30T05:36:02.853Z,1604.00
2022-08-30T05:37:02.845Z,1624.00
2022-08-30T05:38:02.816Z,1648.00
2022-08-30T05:39:02.811Z,1672.00
2022-08-30T05:40:02.901Z,1696.00
2022-08-30T05:41:07.835Z,1720.00
2022-08-30T05:42:02.753Z,1740.00
2022-08-30T05:43:02.740Z,1764.00
2022-08-30T05:44:02.726Z,1788.00
2022-08-30T05:45:02.700Z,1816.00
2022-08-30T05:46:02.687Z,1844.00
2022-08-30T05:47:02.667Z,1864.00
2022-08-30T05:48:02.657Z,1888.00
2022-08-30T05:49:02.634Z,1916.00
2022-08-30T05:50:02.624Z,1944.00
2022-08-30T05:51:02.605Z,1972.00
2022-08-30T05:52:02.594Z,1996.00
2022-08-30T05:53:02.572Z,2024.00
2022-08-30T05:54:02.559Z,2048.00
2022-08-30T05:55:02.545Z,2080.00
2022-08-30T05:56:02.522Z,2112.00
2022-08-30T05:57:02.507Z,2140.00
2022-08-30T05:58:02.491Z,2176.00
2022-08-30T05:59:02.474Z,2212.00
2022-08-30T06:00:02.455Z,2244.00
2022-08-30T06:01:02.447Z,2276.00
2022-08-30T06:02:02.474Z,2312.00
2022-08-30T06:03:02.515Z,2332.00
2022-08-30T06:04:04.133Z,2368.00
2022-08-30T06:05:02.376Z,2388.00
2022-08-30T06:06:02.364Z,2412.00
2022-08-30T06:07:02.341Z,2444.00
2022-08-30T06:08:02.327Z,2480.00
2022-08-30T06:09:03.550Z,2512.00
2022-08-30T06:10:02.295Z,2556.00
2022-08-30T06:11:02.281Z,2584.00
2022-08-30T06:12:02.263Z,2628.00
2022-08-30T06:13:02.251Z,2652.00
2022-08-30T06:14:02.230Z,2684.00
2022-08-30T06:15:02.212Z,2712.00
2022-08-30T06:16:02.233Z,2740.00
2022-08-30T06:17:02.180Z,2776.00
2022-08-30T06:18:02.164Z,2804.00
2022-08-30T06:19:02.148Z,2836.00
2022-08-30T06:20:02.133Z,2872.00
2022-08-30T06:21:02.115Z,2904.00
2022-08-30T06:22:02.102Z,2952.00
2022-08-30T06:23:02.084Z,2984.00
2022-08-30T06:24:02.070Z,3028.00
2022-08-30T06:25:02.053Z,3072.00
2022-08-30T06:26:02.036Z,3100.00
2022-08-30T06:27:02.017Z,3152.00
2022-08-30T06:28:02.005Z,3200.00
2022-08-30T06:29:01.987Z,3236.00
2022-08-30T06:30:01.977Z,3288.00
2022-08-30T06:31:02.011Z,3320.00
2022-08-30T06:32:01.936Z,3364.00
2022-08-30T06:33:01.926Z,3412.00
2022-08-30T06:34:01.905Z,3472.00
2022-08-30T06:35:01.892Z,3536.00
2022-08-30T06:36:05.755Z,3588.00
2022-08-30T06:37:01.860Z,3660.00
2022-08-30T06:38:01.844Z,3728.00
2022-08-30T06:39:01.835Z,3824.00
2022-08-30T06:40:01.873Z,4140.00
2022-08-30T06:41:01.792Z,4848.00
2022-08-30T06:42:01.777Z,19040.00
2022-08-30T06:43:01.776Z,46688.00
2022-08-30T06:44:01.749Z,68992.00
2022-08-30T06:45:01.737Z,69312.00
2022-08-30T06:46:01.716Z,70880.00
2022-08-30T06:47:01.791Z,69600.00
2022-08-30T06:48:01.691Z,69088.00
2022-08-30T06:49:01.691Z,69856.00
2022-08-30T06:50:01.664Z,66240.00
2022-08-30T06:51:01.655Z,45152.00
2022-08-30T06:52:01.646Z,18880.00
2022-08-30T06:53:01.630Z,10204.00
2022-08-30T06:54:01.618Z,9448.00
2022-08-30T06:55:01.611Z,9156.00
2022-08-30T06:56:01.598Z,8960.00
2022-08-30T06:57:01.582Z,8800.00
2022-08-30T06:58:01.595Z,8736.00
2022-08-30T06:59:01.561Z,8720.00
2022-08-30T07:00:01.553Z,8768.00
2022-08-30T07:01:01.540Z,8844.00
2022-08-30T07:02:01.609Z,8940.00
2022-08-30T07:03:01.721Z,9088.00
2022-08-30T07:04:01.507Z,9368.00
2022-08-30T07:05:01.501Z,9644.00
2022-08-30T07:06:01.491Z,10112.00
2022-08-30T07:07:01.499Z,11036.00
2022-08-30T07:08:01.475Z,16576.00
2022-08-30T07:09:01.810Z,45024.00
2022-08-30T07:10:01.481Z,75328.00
2022-08-30T07:11:01.460Z,79456.00
2022-08-30T07:12:01.449Z,78624.00
2022-08-30T07:13:01.438Z,75808.00
2022-08-30T07:14:01.431Z,76384.00
2022-08-30T07:15:01.427Z,80160.00
2022-08-30T07:16:01.476Z,82560.00
2022-08-30T07:17:01.416Z,84960.00
2022-08-30T07:18:01.409Z,80416.00
2022-08-30T07:19:01.402Z,76608.00
2022-08-30T07:20:01.399Z,82656.00
2022-08-30T07:21:01.392Z,86528.00
2022-08-30T07:22:01.387Z,84864.00
2022-08-30T07:23:01.381Z,85120.00
2022-08-30T07:24:01.381Z,83072.00
2022-08-30T07:25:01.373Z,79520.00
2022-08-30T07:26:01.367Z,78016.00
2022-08-30T07:27:01.364Z,78144.00
2022-08-30T07:28:01.361Z,82912.00
2022-08-30T07:29:01.356Z,84160.00
2022-08-30T07:30:01.358Z,85472.00
2022-08-30T07:31:01.402Z,85184.00
2022-08-30T07:32:01.347Z,85536.00
2022-08-30T07:33:01.351Z,83264.00
2022-08-30T07:34:01.341Z,80704.00
2022-08-30T07:35:01.342Z,76128.00
2022-08-30T07:36:02.327Z,76800.00
2022-08-30T07:37:01.340Z,79712.00
2022-08-30T07:38:01.339Z,81824.00
2022-08-30T07:39:01.339Z,79968.00
2022-08-30T07:40:01.366Z,78048.00
2022-08-30T07:41:01.339Z,77056.00
2022-08-30T07:42:01.328Z,76160.00
2022-08-30T07:43:01.342Z,77344.00
2022-08-30T07:44:01.328Z,80864.00
2022-08-30T07:45:01.330Z,82048.00
2022-08-30T07:46:01.397Z,80864.00
2022-08-30T07:47:01.332Z,83392.00
2022-08-30T07:48:01.326Z,86624.00
2022-08-30T07:49:01.811Z,87008.00
2022-08-30T07:50:01.325Z,85696.00
2022-08-30T07:51:05.161Z,85504.00
2022-08-30T07:52:01.328Z,86784.00
2022-08-30T07:53:01.332Z,87040.00
2022-08-30T07:54:01.329Z,86688.00
2022-08-30T07:55:01.329Z,88640.00
2022-08-30T07:56:01.332Z,85056.00
2022-08-30T07:57:01.332Z,84064.00
2022-08-30T07:59:01.337Z,86464.00
2022-08-30T08:00:01.350Z,85376.00
2022-08-30T08:01:01.338Z,81824.00
2022-08-30T08:02:01.404Z,82912.00
2022-08-30T08:03:01.409Z,86784.00
2022-08-30T08:04:01.345Z,86880.00
2022-08-30T08:05:01.349Z,79776.00
2022-08-30T08:06:01.344Z,77184.00
2022-08-30T08:07:01.355Z,75584.00
2022-08-30T08:08:01.355Z,81440.00
2022-08-30T08:09:01.357Z,85440.00
2022-08-30T08:10:01.352Z,83456.00
2022-08-30T08:11:01.360Z,82176.00
2022-08-30T08:12:01.360Z,85056.00
2022-08-30T08:13:01.363Z,87360.00
2022-08-30T08:14:01.447Z,85280.00
2022-08-30T08:15:03.062Z,84864.00
2022-08-30T08:16:01.446Z,86208.00
2022-08-30T08:17:01.382Z,83712.00
2022-08-30T08:18:01.382Z,81120.00
2022-08-30T08:19:01.399Z,83232.00
2022-08-30T08:20:01.386Z,82976.00
2022-08-30T08:21:01.393Z,81376.00
2022-08-30T08:22:20.001Z,80672.00
2022-08-30T08:23:01.398Z,76896.00
2022-08-30T08:24:01.399Z,77312.00
2022-08-30T08:25:01.405Z,74656.00
2022-08-30T08:26:01.405Z,71456.00
2022-08-30T08:27:01.408Z,74400.00
2022-08-30T08:28:01.414Z,73408.00
2022-08-30T08:29:01.425Z,73312.00
2022-08-30T08:30:01.419Z,74368.00
2022-08-30T08:31:01.473Z,79904.00
2022-08-30T08:32:01.428Z,79104.00
2022-08-30T08:33:01.433Z,70144.00
2022-08-30T08:35:01.444Z,75584.00
2022-08-30T08:36:01.807Z,75488.00
2022-08-30T08:37:01.456Z,79520.00
2022-08-30T08:38:01.451Z,79552.00
2022-08-30T08:39:01.457Z,78720.00
2022-08-30T08:40:01.497Z,78272.00
2022-08-30T08:41:01.461Z,67712.00
2022-08-30T08:42:01.465Z,71808.00
2022-08-30T08:43:01.465Z,73760.00
2022-08-30T08:44:01.469Z,74304.00
2022-08-30T08:45:01.475Z,71840.00
2022-08-30T08:46:01.524Z,70240.00
2022-08-30T08:47:01.482Z,75264.00
2022-08-30T08:48:02.652Z,79008.00
2022-08-30T08:49:01.502Z,76608.00
2022-08-30T08:50:01.492Z,71360.00
2022-08-30T08:51:02.805Z,70240.00
2022-08-30T08:52:01.501Z,66400.00
2022-08-30T08:53:01.507Z,70912.00
2022-08-30T08:54:01.510Z,72384.00
2022-08-30T08:55:01.517Z,68960.00
2022-08-30T08:56:01.519Z,73216.00
2022-08-30T08:57:01.519Z,81376.00
2022-08-30T08:58:01.520Z,78336.00
2022-08-30T08:59:01.526Z,74464.00
2022-08-30T09:00:01.534Z,69376.00
2022-08-30T09:01:01.531Z,65184.00
2022-08-30T09:02:01.608Z,59168.00
2022-08-30T09:03:01.536Z,59936.00
2022-08-30T09:04:01.540Z,64832.00
2022-08-30T09:05:01.609Z,61536.00
2022-08-30T09:06:01.547Z,59584.00
2022-08-30T09:07:01.553Z,55296.00
2022-08-30T09:08:01.550Z,49376.00
2022-08-30T09:09:01.558Z,45856.00
2022-08-30T09:10:01.555Z,45536.00
2022-08-30T09:11:01.552Z,49376.00
2022-08-30T09:12:01.558Z,50784.00
2022-08-30T09:13:02.295Z,49536.00
2022-08-30T09:14:01.565Z,49632.00
2022-08-30T09:15:01.571Z,47744.00
2022-08-30T09:16:01.586Z,50688.00
2022-08-30T09:17:02.762Z,46720.00
2022-08-30T09:18:01.562Z,44480.00
2022-08-30T09:19:01.562Z,46336.00
2022-08-30T09:20:01.576Z,40480.00
2022-08-30T09:21:01.565Z,37888.00
2022-08-30T09:22:01.566Z,36608.00
2022-08-30T09:23:01.566Z,40032.00
2022-08-30T09:24:01.565Z,41088.00
2022-08-30T09:25:01.564Z,33600.00
2022-08-30T09:26:01.574Z,35808.00
2022-08-30T09:27:01.570Z,35552.00
2022-08-30T09:28:01.564Z,32672.00
2022-08-30T09:29:01.581Z,30816.00
2022-08-30T09:30:01.571Z,24896.00
2022-08-30T09:31:01.663Z,19840.00
2022-08-30T09:32:22.423Z,16384.00
2022-08-30T09:33:01.566Z,15328.00
2022-08-30T09:34:01.574Z,15072.00
2022-08-30T09:35:01.571Z,15232.00
2022-08-30T09:36:01.559Z,15616.00
2022-08-30T09:37:01.553Z,15712.00
2022-08-30T09:38:01.561Z,14656.00
2022-08-30T09:39:01.555Z,14420.00
2022-08-30T09:40:01.634Z,14656.00
2022-08-30T09:41:01.550Z,13388.00
2022-08-30T09:42:01.545Z,13240.00
2022-08-30T09:43:01.604Z,12620.00
2022-08-30T09:44:01.544Z,12624.00
2022-08-30T09:45:01.539Z,12484.00
2022-08-30T09:46:01.706Z,12344.00
2022-08-30T09:47:01.538Z,12264.00
2022-08-30T09:48:01.520Z,12220.00
2022-08-30T09:49:01.521Z,11612.00
2022-08-30T09:50:01.522Z,11248.00
2022-08-30T09:51:01.515Z,10952.00
2022-08-30T09:52:01.508Z,10888.00
2022-08-30T09:53:01.504Z,10832.00
2022-08-30T09:54:17.353Z,11132.00
2022-08-30T09:55:01.494Z,10824.00
2022-08-30T09:56:01.494Z,11052.00
2022-08-30T09:57:01.491Z,10780.00
2022-08-30T09:58:01.485Z,10728.00
2022-08-30T09:59:01.481Z,10672.00
2022-08-30T10:00:01.474Z,10616.00
2022-08-30T10:01:01.554Z,10568.00
2022-08-30T10:02:01.463Z,10312.00
2022-08-30T10:03:01.458Z,10412.00
2022-08-30T10:04:01.458Z,10432.00
2022-08-30T10:05:01.455Z,10320.00
2022-08-30T10:06:01.446Z,10732.00
2022-08-30T10:07:01.445Z,10444.00
2022-08-30T10:08:01.442Z,10248.00
2022-08-30T10:09:01.440Z,10436.00
2022-08-30T10:10:01.433Z,9956.00
2022-08-30T10:11:01.424Z,9828.00
2022-08-30T10:12:01.423Z,9844.00
2022-08-30T10:13:01.416Z,9356.00
2022-08-30T10:14:01.407Z,8840.00
2022-08-30T10:15:01.404Z,8604.00
2022-08-30T10:16:01.397Z,8376.00
2022-08-30T10:17:01.390Z,8436.00
2022-08-30T10:18:01.384Z,8316.00
2022-08-30T10:19:01.396Z,8852.00
2022-08-30T10:20:01.378Z,2372.00
2022-08-30T10:21:01.369Z,2540.00
2022-08-30T10:22:01.369Z,2544.00
2022-08-30T10:23:01.361Z,2444.00
2022-08-30T10:24:01.360Z,2360.00
2022-08-30T10:25:01.346Z,2304.00
2022-08-30T10:26:01.341Z,2292.00
2022-08-30T10:27:01.337Z,2496.00
2022-08-30T10:28:01.333Z,2580.00
2022-08-30T10:29:01.325Z,2260.00
2022-08-30T10:30:01.321Z,2132.00
2022-08-30T10:31:01.315Z,2508.00
2022-08-30T10:32:01.304Z,2716.00
2022-08-30T10:33:01.299Z,2676.00
2022-08-30T10:34:01.298Z,2712.00
2022-08-30T10:35:01.289Z,2524.00
2022-08-30T10:36:01.280Z,2520.00
2022-08-30T10:37:01.273Z,2636.00
2022-08-30T10:39:01.260Z,2544.00
2022-08-30T10:40:01.309Z,2504.00
2022-08-30T10:41:01.244Z,2608.00
2022-08-30T10:42:01.237Z,2356.00
2022-08-30T10:43:01.229Z,2368.00
2022-08-30T10:44:01.224Z,2568.00
2022-08-30T10:45:01.220Z,2580.00
2022-08-30T10:46:01.241Z,2528.00
2022-08-30T10:47:01.202Z,2608.00
2022-08-30T10:48:01.198Z,2576.00
2022-08-30T10:49:01.190Z,2692.00
2022-08-30T10:50:01.185Z,2584.00
2022-08-30T10:51:01.176Z,2644.00
2022-08-30T10:52:01.167Z,2544.00
2022-08-30T10:53:01.164Z,2748.00
2022-08-30T10:54:01.159Z,2772.00
2022-08-30T10:55:01.144Z,2716.00
2022-08-30T10:56:01.138Z,2472.00
2022-08-30T10:57:01.129Z,2456.00
2022-08-30T10:58:01.126Z,2488.00
2022-08-30T10:59:01.120Z,2592.00
2022-08-30T11:00:01.119Z,2548.00
2022-08-30T11:01:01.146Z,2564.00
2022-08-30T11:02:01.093Z,2532.00
2022-08-30T11:03:01.090Z,2548.00
2022-08-30T11:04:01.080Z,2588.00
2022-08-30T11:05:01.075Z,2668.00
2022-08-30T11:06:01.066Z,2632.00
2022-08-30T11:07:01.064Z,2592.00
2022-08-30T11:08:01.054Z,2548.00
2022-08-30T11:09:01.042Z,2536.00
2022-08-30T11:10:01.036Z,2552.00
2022-08-30T11:11:01.032Z,2600.00
2022-08-30T11:12:01.021Z,2728.00
2022-08-30T11:13:01.011Z,2604.00
2022-08-30T11:14:05.327Z,2628.00
2022-08-30T11:15:00.999Z,2688.00
2022-08-30T11:16:00.990Z,2692.00
2022-08-30T11:17:00.987Z,2560.00
2022-08-30T11:18:00.975Z,2536.00
2022-08-30T11:19:00.979Z,2552.00
2022-08-30T11:20:00.969Z,2744.00
2022-08-30T11:21:00.953Z,2832.00
2022-08-30T11:22:00.948Z,2924.00
2022-08-30T11:23:00.939Z,2848.00
2022-08-30T11:24:00.932Z,2880.00
2022-08-30T11:25:00.922Z,2936.00
2022-08-30T11:26:00.918Z,2976.00
2022-08-30T11:27:00.942Z,2940.00
2022-08-30T11:28:00.905Z,2976.00
2022-08-30T11:29:00.895Z,2536.00
2022-08-30T11:30:00.885Z,2976.00
2022-08-30T11:31:00.877Z,2896.00
2022-08-30T11:32:00.871Z,2920.00
2022-08-30T11:33:00.874Z,2892.00
2022-08-30T11:34:01.146Z,2796.00
2022-08-30T11:35:00.929Z,2820.00
2022-08-30T11:36:00.860Z,2784.00
2022-08-30T11:37:00.837Z,2788.00
2022-08-30T11:38:00.821Z,2840.00
2022-08-30T11:39:00.818Z,2832.00
2022-08-30T11:40:01.834Z,2840.00
2022-08-30T11:41:00.799Z,2840.00
2022-08-30T11:42:00.795Z,2924.00
2022-08-30T11:43:00.788Z,2992.00
2022-08-30T11:44:00.784Z,3036.00
2022-08-30T11:45:00.777Z,2364.00
2022-08-30T11:46:00.780Z,2880.00
2022-08-30T11:47:00.762Z,2964.00
2022-08-30T11:48:00.748Z,3032.00
2022-08-30T11:49:00.751Z,2964.00
2022-08-30T11:50:00.737Z,2812.00
2022-08-30T11:51:00.755Z,2844.00
2022-08-30T11:52:28.446Z,2852.00
2022-08-30T11:53:00.713Z,2664.00
2022-08-30T11:54:00.701Z,2636.00
2022-08-30T11:55:00.697Z,2580.00
2022-08-30T11:56:00.685Z,2704.00
2022-08-30T11:57:00.672Z,2540.00
2022-08-30T11:58:00.680Z,2592.00
2022-08-30T11:59:00.664Z,2664.00
2022-08-30T12:00:00.655Z,2732.00
2022-08-30T12:01:00.648Z,2736.00
2022-08-30T12:02:00.824Z,2784.00
2022-08-30T12:03:00.735Z,2744.00
2022-08-30T12:04:00.627Z,2676.00
2022-08-30T12:05:00.617Z,2656.00
2022-08-30T12:06:00.613Z,2860.00
2022-08-30T12:07:00.602Z,2984.00
2022-08-30T12:08:00.604Z,3004.00
2022-08-30T12:10:00.577Z,2816.00
2022-08-30T12:10:32.207Z,3160.00
2022-08-30T12:11:00.568Z,2852.00
2022-08-30T12:12:00.566Z,2440.00
2022-08-30T12:13:00.552Z,3048.00
2022-08-30T12:14:00.545Z,2876.00
2022-08-30T12:15:00.535Z,2824.00
2022-08-30T12:16:00.531Z,2700.00
2022-08-30T12:17:00.593Z,2672.00
2022-08-30T12:18:00.527Z,2800.00
2022-08-30T12:19:00.779Z,2916.00
2022-08-30T12:20:00.503Z,2936.00
2022-08-30T12:21:00.500Z,2932.00
2022-08-30T12:22:00.495Z,2844.00
2022-08-30T12:23:00.495Z,2772.00
2022-08-30T12:24:00.471Z,2764.00
2022-08-30T12:25:00.458Z,2564.00
2022-08-30T12:26:00.615Z,2864.00
2022-08-30T12:27:00.442Z,2888.00
2022-08-30T12:28:02.118Z,2848.00